Time;durP1;ratioP1;P1;durP2;ratioP2;P2;SDS_P1;SDS_P2;PMS_P1;PMS_P2;Temp;Humidity;BMP_temperature;BMP_pressure;BME280_temperature;BME280_humidity;BME280_pressure;Samples;Min_cycle;Max_cycle;Signal;HPM_P1;HPM_P2
2021/03/20 00:01:22;;;;;;;0.52;0.52;;;2.90;79.30;;;;;;5095430;28;20040;-73
2021/03/20 00:03:48;;;;;;;0.60;0.50;;;3.00;79.30;;;;;;5095050;28;20042;-73
2021/03/20 00:06:18;;;;;;;0.50;0.40;;;2.90;79.30;;;;;;5095127;28;20273;-73
2021/03/20 00:08:45;;;;;;;0.70;0.50;;;2.90;79.30;;;;;;5095197;28;20048;-73
2021/03/20 00:11:13;;;;;;;0.40;0.40;;;2.80;79.30;;;;;;5095127;28;20048;-73
2021/03/20 00:13:39;;;;;;;0.45;0.40;;;2.90;80.10;;;;;;5095434;28;20040;-73
2021/03/20 00:16:06;;;;;;;0.43;0.43;;;2.90;79.50;;;;;;5095059;28;20040;-73
2021/03/20 00:18:32;;;;;;;0.40;0.40;;;2.90;79.50;;;;;;5091145;28;20068;-74
2021/03/20 00:20:57;;;;;;;0.30;0.30;;;2.90;79.40;;;;;;5076133;28;20130;-73
2021/03/20 00:23:24;;;;;;;0.60;0.40;;;2.90;79.40;;;;;;5095233;28;20113;-73
2021/03/20 00:25:50;;;;;;;0.40;0.40;;;2.80;79.40;;;;;;5094746;28;20050;-73
2021/03/20 00:28:21;;;;;;;0.77;0.50;;;3.00;79.50;;;;;;5094965;28;20543;-73
2021/03/20 00:30:50;;;;;;;0.70;0.30;;;2.90;79.50;;;;;;5077887;28;20040;-73
2021/03/20 00:33:16;;;;;;;0.88;0.47;;;2.90;79.60;;;;;;5076642;28;20047;-73
2021/03/20 00:35:42;;;;;;;0.65;0.50;;;3.00;79.60;;;;;;5094410;28;20055;-73
2021/03/20 00:38:08;;;;;;;1.38;0.55;;;2.90;79.50;;;;;;5094493;28;20040;-73
2021/03/20 00:40:34;;;;;;;0.55;0.43;;;2.90;79.50;;;;;;5094406;28;20036;-73
2021/03/20 00:43:00;;;;;;;0.50;0.40;;;2.90;79.50;;;;;;5094474;28;20508;-74
2021/03/20 00:45:28;;;;;;;0.50;0.50;;;2.90;79.50;;;;;;5095178;28;20086;-73
2021/03/20 00:47:54;;;;;;;0.70;0.63;;;2.90;79.50;;;;;;5058819;28;20036;-73
2021/03/20 00:50:24;;;;;;;1.13;0.70;;;2.90;79.50;;;;;;5094943;28;20048;-73
2021/03/20 00:52:49;;;;;;;1.13;0.60;;;2.90;79.60;;;;;;5090477;28;20040;-73
2021/03/20 00:55:16;;;;;;;0.32;0.32;;;2.90;79.50;;;;;;5094641;28;20382;-73
2021/03/20 00:57:42;;;;;;;1.02;0.50;;;2.80;79.60;;;;;;5075039;28;20040;-73
2021/03/20 01:00:12;;;;;;;0.75;0.40;;;2.80;79.60;;;;;;5094240;28;20043;-73
2021/03/20 01:02:38;;;;;;;0.80;0.50;;;2.80;79.70;;;;;;5093525;28;20115;-73
2021/03/20 01:05:06;;;;;;;0.82;0.47;;;2.80;79.70;;;;;;5076416;28;20315;-73
2021/03/20 01:07:32;;;;;;;0.90;0.43;;;2.80;79.90;;;;;;5094098;28;20505;-73
2021/03/20 01:09:58;;;;;;;0.30;0.30;;;2.70;79.90;;;;;;5076153;28;20060;-73
2021/03/20 01:12:23;;;;;;;0.68;0.35;;;2.70;80.00;;;;;;5094354;28;20495;-72
2021/03/20 01:14:49;;;;;;;0.50;0.38;;;2.60;80.00;;;;;;5076225;28;20579;-73
2021/03/20 01:17:15;;;;;;;0.63;0.50;;;2.60;80.10;;;;;;5093952;28;20410;-73
2021/03/20 01:19:41;;;;;;;0.40;0.38;;;2.60;80.20;;;;;;5074802;28;20486;-73
2021/03/20 01:22:06;;;;;;;0.45;0.30;;;2.50;80.20;;;;;;5093969;28;20038;-73
2021/03/20 01:24:32;;;;;;;0.50;0.38;;;2.50;80.40;;;;;;5075189;28;20445;-73
2021/03/20 01:26:58;;;;;;;0.70;0.43;;;2.40;80.50;;;;;;5075953;28;20402;-73
2021/03/20 01:29:23;;;;;;;0.38;0.30;;;2.40;80.40;;;;;;5093819;28;20457;-73
2021/03/20 01:31:51;;;;;;;0.52;0.50;;;2.50;80.60;;;;;;5094168;28;20578;-73
2021/03/20 01:34:17;;;;;;;0.50;0.50;;;2.40;80.50;;;;;;5094033;28;20071;-73
2021/03/20 01:36:43;;;;;;;0.47;0.30;;;2.30;80.50;;;;;;5093750;28;20071;-73
2021/03/20 01:39:08;;;;;;;0.30;0.22;;;2.40;80.60;;;;;;5075765;28;20052;-73
2021/03/20 01:41:34;;;;;;;0.30;0.30;;;2.30;80.70;;;;;;5094248;28;20074;-73
2021/03/20 01:44:00;;;;;;;0.82;0.40;;;2.20;80.60;;;;;;5074180;28;20131;-73
2021/03/20 01:46:46;;;;;;;0.40;0.40;;;2.20;80.60;;;;;;5075395;28;20455;-74
2021/03/20 01:49:20;;;;;;;0.60;0.40;;;2.20;80.70;;;;;;5093922;28;20119;-73
2021/03/20 01:52:03;;;;;;;0.55;0.40;;;2.20;80.70;;;;;;5093608;28;20051;-73
2021/03/20 01:54:44;;;;;;;0.30;0.30;;;2.20;80.80;;;;;;5075878;28;20047;-73
2021/03/20 01:57:10;;;;;;;0.43;0.40;;;2.10;80.70;;;;;;5059328;28;20091;-73
2021/03/20 01:59:37;;;;;;;0.50;0.40;;;2.10;80.70;;;;;;5093243;28;20102;-73
2021/03/20 02:02:03;;;;;;;0.20;0.20;;;2.10;80.80;;;;;;5093441;28;20094;-73
2021/03/20 02:04:29;;;;;;;0.63;0.40;;;2.00;80.70;;;;;;5093130;28;20044;-73
2021/03/20 02:06:55;;;;;;;0.70;0.40;;;2.00;80.80;;;;;;5075368;28;20078;-73
2021/03/20 02:09:20;;;;;;;0.22;0.22;;;2.00;80.90;;;;;;5074490;28;20505;-73
2021/03/20 02:12:11;;;;;;;0.43;0.40;;;1.90;80.90;;;;;;5073722;28;20041;-73
2021/03/20 02:15:06;;;;;;;0.47;0.40;;;1.90;81.00;;;;;;5078053;28;20048;-73
2021/03/20 02:17:56;;;;;;;0.35;0.20;;;1.90;81.00;;;;;;5093159;28;20051;-73
2021/03/20 02:20:50;;;;;;;0.50;0.30;;;1.70;81.00;;;;;;5078388;28;20127;-73
2021/03/20 02:23:46;;;;;;;0.40;0.40;;;1.80;81.10;;;;;;5093126;28;20040;-73
2021/03/20 02:26:46;;;;;;;0.20;0.20;;;1.70;81.20;;;;;;5092746;28;20086;-73
2021/03/20 02:29:47;;;;;;;0.55;0.30;;;1.70;81.20;;;;;;5079948;28;20073;-73
2021/03/20 02:32:47;;;;;;;0.20;0.20;;;1.70;81.20;;;;;;5077872;28;20036;-73
2021/03/20 02:35:34;;;;;;;1.80;0.40;;;1.60;81.20;;;;;;5076850;28;20040;-73
2021/03/20 02:38:13;;;;;;;0.52;0.40;;;1.60;81.30;;;;;;5092884;28;20072;-73
2021/03/20 02:41:09;;;;;;;0.43;0.30;;;1.60;81.30;;;;;;5092856;28;20051;-74
2021/03/20 02:43:56;;;;;;;0.90;0.30;;;1.50;81.30;;;;;;5079388;28;20036;-74
2021/03/20 02:46:28;;;;;;;0.20;0.20;;;1.60;81.30;;;;;;5092633;28;20072;-73
2021/03/20 02:49:19;;;;;;;0.65;0.30;;;1.40;81.10;;;;;;5092639;28;20036;-73
2021/03/20 02:52:02;;;;;;;0.45;0.20;;;1.50;81.30;;;;;;5078705;28;20398;-73
2021/03/20 02:54:51;;;;;;;0.20;0.20;;;1.40;81.20;;;;;;5092530;28;20040;-73
2021/03/20 02:57:24;;;;;;;0.30;0.30;;;1.30;81.30;;;;;;5092735;28;20051;-73
2021/03/20 02:59:56;;;;;;;0.57;0.30;;;1.30;81.40;;;;;;5092430;28;20044;-73
2021/03/20 03:02:24;;;;;;;0.50;0.47;;;1.30;81.50;;;;;;5072962;28;20040;-73
2021/03/20 03:05:08;;;;;;;0.30;0.20;;;1.20;81.40;;;;;;5092418;28;20040;-73
2021/03/20 03:07:43;;;;;;;0.30;0.30;;;1.20;81.60;;;;;;5092897;28;20169;-73
2021/03/20 03:10:35;;;;;;;0.73;0.35;;;1.10;81.50;;;;;;5074082;28;20532;-73
2021/03/20 03:13:15;;;;;;;0.10;0.10;;;1.20;81.50;;;;;;5092012;28;20402;-73
2021/03/20 03:15:45;;;;;;;0.32;0.20;;;1.10;81.50;;;;;;5092187;28;20093;-73
2021/03/20 03:18:18;;;;;;;0.22;0.22;;;1.10;81.60;;;;;;5091967;28;20035;-73
2021/03/20 03:20:50;;;;;;;0.28;0.20;;;1.10;81.60;;;;;;5092286;28;20529;-73
2021/03/20 03:23:22;;;;;;;0.28;0.28;;;1.00;81.60;;;;;;5092306;28;20036;-73
2021/03/20 03:25:55;;;;;;;0.30;0.30;;;1.00;81.60;;;;;;5073921;28;20501;-73
2021/03/20 03:28:26;;;;;;;0.30;0.20;;;1.00;81.70;;;;;;5092475;28;20040;-73
2021/03/20 03:30:53;;;;;;;0.40;0.30;;;0.90;81.70;;;;;;5092466;28;20036;-73
2021/03/20 03:33:31;;;;;;;0.47;0.22;;;0.90;81.70;;;;;;5072206;28;20507;-73
2021/03/20 03:36:04;;;;;;;0.38;0.30;;;0.90;81.80;;;;;;5092479;28;20044;-73
2021/03/20 03:38:57;;;;;;;0.40;0.20;;;0.80;81.70;;;;;;5073476;28;20033;-73
2021/03/20 03:41:27;;;;;;;0.30;0.30;;;0.90;81.80;;;;;;5078212;28;20072;-73
2021/03/20 03:43:54;;;;;;;0.30;0.30;;;0.80;81.70;;;;;;5091843;28;20118;-73
2021/03/20 03:46:27;;;;;;;0.47;0.40;;;0.80;81.70;;;;;;5091851;28;20351;-73
2021/03/20 03:48:54;;;;;;;0.28;0.28;;;0.80;81.80;;;;;;5074222;28;20467;-73
2021/03/20 03:51:21;;;;;;;0.22;0.20;;;0.80;81.80;;;;;;5091722;28;20044;-73
2021/03/20 03:53:47;;;;;;;0.30;0.30;;;0.70;81.80;;;;;;5092092;28;20058;-74
2021/03/20 03:56:37;;;;;;;0.30;0.30;;;0.70;81.80;;;;;;5091686;28;20490;-73
2021/03/20 03:59:19;;;;;;;0.20;0.20;;;0.60;81.80;;;;;;5091519;28;20150;-73
2021/03/20 04:01:54;;;;;;;;;;;0.60;81.80;;;;;;5092652;28;20036;-74
2021/03/20 04:04:48;;;;;;;0.28;0.20;;;0.60;81.80;;;;;;5091880;28;20335;-73
2021/03/20 04:07:35;;;;;;;0.20;0.20;;;0.60;81.80;;;;;;5091669;28;20044;-73
2021/03/20 04:10:23;;;;;;;0.40;0.30;;;0.50;81.80;;;;;;5056574;28;20059;-74
2021/03/20 04:13:02;;;;;;;0.20;0.20;;;0.60;81.80;;;;;;5091423;28;20132;-73
2021/03/20 04:15:48;;;;;;;0.32;0.20;;;0.60;81.80;;;;;;5091338;28;20169;-73
2021/03/20 04:18:23;;;;;;;0.52;0.30;;;0.50;81.80;;;;;;5091154;28;20525;-73
2021/03/20 04:21:05;;;;;;;0.25;0.20;;;0.60;81.80;;;;;;5091258;28;20065;-73
2021/03/20 04:23:35;;;;;;;0.20;0.20;;;0.50;81.80;;;;;;5091522;28;20170;-73
2021/03/20 04:26:19;;;;;;;0.20;0.20;;;0.50;81.80;;;;;;5091582;28;20070;-73
2021/03/20 04:28:55;;;;;;;0.57;0.30;;;0.40;81.80;;;;;;5091280;28;20047;-73
2021/03/20 04:31:38;;;;;;;0.25;0.15;;;0.40;81.90;;;;;;5091253;28;20133;-74
2021/03/20 04:34:31;;;;;;;0.50;0.22;;;0.40;82.00;;;;;;5091203;28;20048;-73
2021/03/20 04:37:02;;;;;;;0.63;0.30;;;0.30;82.00;;;;;;5074719;28;20097;-73
2021/03/20 04:39:33;;;;;;;0.40;0.20;;;0.30;82.00;;;;;;5094085;28;20042;-73
2021/03/20 04:41:59;;;;;;;0.10;0.10;;;0.30;82.00;;;;;;5074745;28;20070;-73
2021/03/20 04:44:25;;;;;;;0.30;0.20;;;0.30;82.00;;;;;;5095048;28;20036;-73
2021/03/20 04:46:51;;;;;;;0.50;0.28;;;0.30;82.00;;;;;;5094352;28;20040;-74
2021/03/20 04:49:33;;;;;;;0.13;0.13;;;0.20;82.00;;;;;;5094488;28;20063;-74
2021/03/20 04:52:08;;;;;;;0.10;0.10;;;0.20;82.70;;;;;;5094788;28;20040;-73
2021/03/20 04:54:34;;;;;;;0.10;0.10;;;0.20;82.10;;;;;;5094080;28;20139;-73
2021/03/20 04:57:11;;;;;;;0.22;0.20;;;0.20;82.10;;;;;;5094431;28;20131;-73
2021/03/20 04:59:56;;;;;;;0.10;0.10;;;0.10;82.10;;;;;;5094217;28;20414;-73
2021/03/20 05:02:35;;;;;;;0.20;0.20;;;0.10;82.20;;;;;;5076204;28;20067;-73
2021/03/20 05:05:22;;;;;;;0.10;0.08;;;0.10;82.20;;;;;;5094949;28;20394;-73
2021/03/20 05:07:49;;;;;;;0.20;0.20;;;0.00;82.20;;;;;;5094490;28;20040;-73
2021/03/20 05:10:29;;;;;;;0.20;0.20;;;0.00;82.20;;;;;;5094756;28;20541;-73
2021/03/20 05:12:57;;;;;;;0.20;0.20;;;0.00;82.20;;;;;;5094423;28;20052;-73
2021/03/20 05:15:28;;;;;;;0.30;0.30;;;0.00;82.30;;;;;;5094641;28;20028;-74
2021/03/20 05:17:54;;;;;;;0.20;0.20;;;-0.10;82.30;;;;;;5075549;28;20155;-73
2021/03/20 05:20:20;;;;;;;0.10;0.10;;;-0.20;82.30;;;;;;5076319;28;20040;-73
2021/03/20 05:22:48;;;;;;;0.20;0.20;;;-0.10;82.40;;;;;;5094524;28;20042;-73
2021/03/20 05:25:17;;;;;;;0.20;0.20;;;-0.20;82.40;;;;;;5094193;28;20044;-73
2021/03/20 05:27:43;;;;;;;0.20;0.20;;;-0.20;82.40;;;;;;5059529;28;20036;-74
2021/03/20 05:30:11;;;;;;;0.10;0.10;;;-0.20;82.40;;;;;;5093948;28;20044;-73
2021/03/20 05:32:37;;;;;;;0.20;0.20;;;-0.20;82.30;;;;;;5076739;28;20036;-73
2021/03/20 05:35:07;;;;;;;0.38;0.20;;;-0.20;83.00;;;;;;5093900;28;20051;-73
2021/03/20 05:37:37;;;;;;;0.20;0.20;;;-0.20;82.40;;;;;;5094214;28;20055;-74
2021/03/20 05:40:06;;;;;;;0.20;0.20;;;-0.30;82.40;;;;;;5076430;28;20131;-74
2021/03/20 05:42:45;;;;;;;0.10;0.10;;;-0.20;82.40;;;;;;5094122;28;20119;-73
2021/03/20 05:45:34;;;;;;;0.22;0.15;;;-0.30;82.40;;;;;;5093653;28;20371;-74
2021/03/20 05:48:17;;;;;;;0.10;0.10;;;-0.20;82.50;;;;;;5093541;28;20047;-73
2021/03/20 05:51:08;;;;;;;0.15;0.15;;;-0.30;82.50;;;;;;5093706;28;20093;-73
2021/03/20 05:53:50;;;;;;;0.20;0.20;;;-0.20;82.50;;;;;;5093869;28;20063;-74
2021/03/20 05:56:27;;;;;;;0.60;0.20;;;-0.30;82.40;;;;;;5093897;28;20129;-74
2021/03/20 05:59:21;;;;;;;0.43;0.20;;;-0.30;82.40;;;;;;5093650;28;20040;-74
2021/03/20 06:02:20;;;;;;;0.20;0.10;;;-0.30;82.40;;;;;;5080511;28;20040;-73
2021/03/20 06:04:54;;;;;;;0.10;0.10;;;-0.40;82.40;;;;;;5093557;28;20444;-74
2021/03/20 06:07:47;;;;;;;0.20;0.10;;;-0.40;82.40;;;;;;5093653;28;20046;-74
2021/03/20 06:10:36;;;;;;;0.20;0.20;;;-0.20;82.50;;;;;;5079853;28;20067;-73
2021/03/20 06:13:17;;;;;;;0.55;0.20;;;-0.30;82.40;;;;;;5093484;28;20032;-74
2021/03/20 06:16:18;;;;;;;0.52;0.25;;;-0.30;82.30;;;;;;5093391;28;20040;-74
2021/03/20 06:19:01;;;;;;;0.08;0.08;;;-0.30;82.30;;;;;;5078699;28;20066;-73
2021/03/20 06:22:06;;;;;;;0.10;0.10;;;-0.30;82.20;;;;;;5093373;28;20040;-73
2021/03/20 06:25:06;;;;;;;0.25;0.10;;;-0.20;82.20;;;;;;5075139;28;20486;-73
2021/03/20 06:27:39;;;;;;;0.22;0.17;;;-0.20;82.20;;;;;;5093093;28;20044;-73
2021/03/20 06:30:37;;;;;;;0.10;0.10;;;-0.20;82.00;;;;;;5093090;28;20040;-74
2021/03/20 06:33:21;;;;;;;0.20;0.20;;;-0.10;82.10;;;;;;5075135;28;20444;-74
2021/03/20 06:35:50;;;;;;;0.10;0.10;;;0.00;81.90;;;;;;5074051;28;20605;-73
2021/03/20 06:38:26;;;;;;;0.30;0.20;;;0.10;81.90;;;;;;5092853;28;20122;-74
2021/03/20 06:41:01;;;;;;;0.10;0.10;;;0.10;81.80;;;;;;5093312;28;20097;-73
2021/03/20 06:43:33;;;;;;;0.03;0.03;;;0.10;81.70;;;;;;5093518;28;20135;-74
2021/03/20 06:46:00;;;;;;;0.40;0.22;;;0.30;81.70;;;;;;5092576;28;20374;-73
2021/03/20 06:48:30;;;;;;;0.30;0.30;;;0.50;81.60;;;;;;5092840;28;20438;-73
2021/03/20 06:50:58;;;;;;;0.25;0.20;;;0.40;81.40;;;;;;5074841;28;20074;-73
2021/03/20 06:53:47;;;;;;;0.30;0.30;;;0.50;81.30;;;;;;5093138;28;20050;-73
2021/03/20 06:56:15;;;;;;;0.40;0.20;;;0.60;81.20;;;;;;5092857;28;20039;-73
2021/03/20 06:58:42;;;;;;;0.10;0.10;;;0.70;81.10;;;;;;5092856;28;20040;-73
2021/03/20 07:01:22;;;;;;;0.40;0.20;;;0.70;80.90;;;;;;5091728;28;20542;-73
2021/03/20 07:04:24;;;;;;;0.17;0.17;;;0.70;80.80;;;;;;5092346;28;20119;-73
2021/03/20 07:07:25;;;;;;;0.10;0.10;;;0.80;80.70;;;;;;5074553;28;20066;-73
2021/03/20 07:09:52;;;;;;;0.35;0.25;;;1.00;80.60;;;;;;5092489;28;20128;-73
2021/03/20 07:12:22;;;;;;;0.20;0.20;;;1.00;81.00;;;;;;5074532;28;20044;-73
2021/03/20 07:14:53;;;;;;;0.80;0.40;;;1.10;80.30;;;;;;5073243;28;20490;-73
2021/03/20 07:17:30;;;;;;;0.73;0.40;;;1.20;80.20;;;;;;5092539;28;20040;-73
2021/03/20 07:20:08;;;;;;;0.20;0.20;;;1.30;80.10;;;;;;5073811;28;20047;-73
2021/03/20 07:22:39;;;;;;;0.75;0.28;;;1.40;79.90;;;;;;5092110;28;20052;-73
2021/03/20 07:25:34;;;;;;;0.20;0.20;;;1.50;79.80;;;;;;5092408;28;20043;-73
2021/03/20 07:28:21;;;;;;;0.55;0.22;;;1.50;79.60;;;;;;5076863;28;20081;-73
2021/03/20 07:30:52;;;;;;;0.30;0.30;;;1.60;79.50;;;;;;5074888;28;20040;-73
2021/03/20 07:33:40;;;;;;;0.20;0.20;;;1.70;79.40;;;;;;5092319;28;20044;-73
2021/03/20 07:36:34;;;;;;;0.52;0.20;;;1.80;79.20;;;;;;5092322;28;20043;-73
2021/03/20 07:39:10;;;;;;;0.13;0.13;;;1.90;79.10;;;;;;5092768;28;20039;-73
2021/03/20 07:41:50;;;;;;;0.30;0.30;;;2.00;78.90;;;;;;5092164;28;20040;-73
2021/03/20 07:44:16;;;;;;;0.20;0.20;;;2.10;78.80;;;;;;5074083;28;20040;-73
2021/03/20 07:46:43;;;;;;;0.25;0.20;;;2.30;78.70;;;;;;5092493;28;20384;-73
2021/03/20 07:49:22;;;;;;;0.50;0.20;;;2.40;78.60;;;;;;5091924;28;20069;-73
2021/03/20 07:52:00;;;;;;;0.30;0.20;;;2.40;78.40;;;;;;5091950;28;20043;-73
2021/03/20 07:54:30;;;;;;;0.10;0.10;;;2.60;78.40;;;;;;5092562;28;20402;-72
2021/03/20 07:57:08;;;;;;;1.40;0.30;;;2.70;78.20;;;;;;5073885;28;20055;-73
2021/03/20 07:59:34;;;;;;;0.45;0.30;;;2.80;78.00;;;;;;5091896;28;20126;-73
2021/03/20 08:02:03;;;;;;;0.60;0.20;;;2.90;77.80;;;;;;5092194;28;20077;-72
2021/03/20 08:04:57;;;;;;;0.57;0.30;;;3.00;77.70;;;;;;5092082;28;20039;-72
2021/03/20 08:07:34;;;;;;;0.30;0.30;;;3.20;77.70;;;;;;5091842;28;20583;-72
2021/03/20 08:10:22;;;;;;;0.57;0.30;;;3.30;77.60;;;;;;5091767;28;20500;-73
2021/03/20 08:12:53;;;;;;;1.02;0.30;;;3.50;77.30;;;;;;5093628;28;20065;-73
2021/03/20 08:15:25;;;;;;;0.30;0.30;;;3.50;77.30;;;;;;5095888;28;20047;-72
2021/03/20 08:17:51;;;;;;;0.38;0.38;;;3.70;77.30;;;;;;5095679;28;20401;-72
2021/03/20 08:20:18;;;;;;;0.30;0.30;;;3.80;77.30;;;;;;5095108;28;20051;-73
2021/03/20 08:23:00;;;;;;;0.85;0.50;;;3.90;77.00;;;;;;5095482;28;20052;-73
2021/03/20 08:25:49;;;;;;;0.50;0.50;;;4.00;76.90;;;;;;5077273;28;20036;-73
2021/03/20 08:28:33;;;;;;;0.88;0.47;;;4.00;76.90;;;;;;5095177;28;20036;-73
2021/03/20 08:31:09;;;;;;;0.50;0.40;;;4.00;76.90;;;;;;5077198;28;20409;-72
2021/03/20 08:34:09;;;;;;;0.30;0.28;;;4.00;77.00;;;;;;5095127;28;20048;-73
2021/03/20 08:37:10;;;;;;;0.47;0.30;;;4.00;77.00;;;;;;5094976;28;20036;-72
2021/03/20 08:40:03;;;;;;;0.77;0.40;;;4.20;77.00;;;;;;5094773;28;20093;-70
2021/03/20 08:42:51;;;;;;;0.32;0.30;;;4.40;76.90;;;;;;5093475;28;20032;-70
2021/03/20 08:45:35;;;;;;;0.57;0.32;;;4.40;76.70;;;;;;5094870;28;20545;-70
2021/03/20 08:48:13;;;;;;;0.73;0.40;;;4.50;76.60;;;;;;5095005;28;20074;-70
2021/03/20 08:51:04;;;;;;;0.40;0.40;;;4.50;76.60;;;;;;5094639;28;20073;-71
2021/03/20 08:54:01;;;;;;;0.50;0.40;;;4.60;76.60;;;;;;5094698;28;20123;-71
2021/03/20 08:57:02;;;;;;;0.40;0.30;;;4.70;76.50;;;;;;5094618;28;20040;-70
2021/03/20 08:59:34;;;;;;;0.50;0.50;;;4.70;76.50;;;;;;5094465;28;20127;-72
2021/03/20 09:02:31;;;;;;;0.90;0.50;;;4.80;76.40;;;;;;5094460;28;20040;-71
2021/03/20 09:05:11;;;;;;;0.52;0.50;;;4.90;76.40;;;;;;5094453;28;20068;-70
2021/03/20 09:07:47;;;;;;;0.60;0.32;;;5.00;76.60;;;;;;5094471;28;20097;-71
2021/03/20 09:10:22;;;;;;;0.20;0.20;;;5.10;76.30;;;;;;5043863;28;20135;-72
2021/03/20 09:12:57;;;;;;;0.32;0.32;;;5.10;76.20;;;;;;5094505;28;20099;-71
2021/03/20 09:15:28;;;;;;;0.85;0.50;;;5.20;76.30;;;;;;5094933;28;20048;-71
2021/03/20 09:17:56;;;;;;;0.75;0.47;;;5.30;76.30;;;;;;5094912;28;20044;-72
2021/03/20 09:20:38;;;;;;;1.00;0.60;;;5.40;76.10;;;;;;5076117;28;20494;-71
2021/03/20 09:23:07;;;;;;;0.50;0.50;;;5.40;76.00;;;;;;5059430;28;20086;-71
2021/03/20 09:25:42;;;;;;;0.65;0.43;;;5.40;75.90;;;;;;5093586;28;20401;-71
2021/03/20 09:28:27;;;;;;;0.43;0.43;;;5.50;75.90;;;;;;5059738;28;20072;-71
2021/03/20 09:30:58;;;;;;;0.68;0.50;;;5.60;75.90;;;;;;5076052;28;20039;-71
2021/03/20 09:33:34;;;;;;;1.40;0.40;;;5.70;75.80;;;;;;5094117;28;20447;-71
2021/03/20 09:36:22;;;;;;;0.88;0.63;;;5.80;75.60;;;;;;5094118;28;20047;-71
2021/03/20 09:39:09;;;;;;;1.15;0.60;;;5.80;75.50;;;;;;5093643;28;20122;-72
2021/03/20 09:41:37;;;;;;;0.75;0.70;;;5.80;75.40;;;;;;5078683;28;20040;-71
2021/03/20 09:44:16;;;;;;;0.85;0.60;;;5.80;75.40;;;;;;5094396;28;20043;-72
2021/03/20 09:47:22;;;;;;;1.10;0.60;;;5.90;75.40;;;;;;5076069;28;20036;-72
2021/03/20 09:49:53;;;;;;;0.65;0.60;;;5.90;75.20;;;;;;5081755;28;20043;-71
2021/03/20 09:52:39;;;;;;;0.90;0.60;;;6.00;75.30;;;;;;5094231;28;20077;-71
2021/03/20 09:55:26;;;;;;;0.98;0.50;;;6.20;74.90;;;;;;5093642;28;20032;-71
2021/03/20 09:57:53;;;;;;;1.42;0.90;;;6.30;74.70;;;;;;5089592;28;20142;-73
2021/03/20 10:00:57;;;;;;;0.82;0.70;;;6.20;74.60;;;;;;5093384;28;20134;-73
2021/03/20 10:03:39;;;;;;;0.93;0.65;;;6.20;74.60;;;;;;5061279;28;20040;-73
2021/03/20 10:06:22;;;;;;;1.00;0.65;;;6.40;74.50;;;;;;5075367;28;20494;-73
2021/03/20 10:09:17;;;;;;;0.82;0.50;;;6.40;74.30;;;;;;5093497;28;20082;-73
2021/03/20 10:12:06;;;;;;;1.20;0.80;;;6.40;74.30;;;;;;5074282;28;20068;-73
2021/03/20 10:14:37;;;;;;;1.08;0.90;;;6.40;74.30;;;;;;5093405;28;20490;-75
2021/03/20 10:17:07;;;;;;;1.77;0.90;;;6.50;74.10;;;;;;5093301;28;20147;-75
2021/03/20 10:19:40;;;;;;;2.13;0.70;;;6.40;74.00;;;;;;5093232;28;20470;-73
2021/03/20 10:22:26;;;;;;;1.20;0.60;;;6.50;74.00;;;;;;5093796;28;20028;-73
2021/03/20 10:24:53;;;;;;;0.85;0.65;;;6.60;73.90;;;;;;5093337;28;20036;-73
2021/03/20 10:27:26;;;;;;;0.77;0.68;;;6.60;73.60;;;;;;5093068;28;20529;-73
2021/03/20 10:29:52;;;;;;;1.48;0.80;;;6.60;73.70;;;;;;5092987;28;20505;-73
2021/03/20 10:32:21;;;;;;;0.77;0.63;;;6.70;73.60;;;;;;5092930;28;20120;-73
2021/03/20 10:34:53;;;;;;;0.85;0.60;;;6.80;73.40;;;;;;5092903;28;20074;-73
2021/03/20 10:37:30;;;;;;;0.93;0.70;;;6.90;73.20;;;;;;5073453;28;20107;-73
2021/03/20 10:40:24;;;;;;;0.43;0.43;;;6.90;72.90;;;;;;5057983;28;20040;-73
2021/03/20 10:43:00;;;;;;;1.33;0.80;;;6.90;72.90;;;;;;5093296;28;20082;-73
2021/03/20 10:45:33;;;;;;;1.42;0.80;;;7.00;72.80;;;;;;5075389;28;20036;-75
2021/03/20 10:48:14;;;;;;;1.55;0.70;;;7.10;72.60;;;;;;5089534;28;20545;-76
2021/03/20 10:50:44;;;;;;;0.73;0.43;;;7.20;72.50;;;;;;5092854;28;20089;-77
2021/03/20 10:53:19;;;;;;;1.55;0.68;;;7.30;72.30;;;;;;5057791;28;20067;-76
2021/03/20 10:55:49;;;;;;;1.15;0.80;;;7.30;71.90;;;;;;5074488;28;20051;-76
2021/03/20 10:58:23;;;;;;;0.95;0.73;;;7.40;72.00;;;;;;5074484;28;20044;-76
2021/03/20 11:00:50;;;;;;;1.75;0.80;;;7.40;71.80;;;;;;5092960;28;20033;-74
2021/03/20 11:03:22;;;;;;;0.73;0.60;;;7.40;71.70;;;;;;5075054;28;20078;-74
2021/03/20 11:05:48;;;;;;;1.35;0.90;;;7.50;71.50;;;;;;5093067;28;20036;-74
2021/03/20 11:08:28;;;;;;;1.33;0.88;;;7.60;71.50;;;;;;5074238;28;20402;-74
2021/03/20 11:11:10;;;;;;;0.68;0.60;;;7.60;71.50;;;;;;5092829;28;20064;-74
2021/03/20 11:13:40;;;;;;;1.02;0.80;;;7.70;71.50;;;;;;5092759;28;20079;-74
2021/03/20 11:16:13;;;;;;;1.10;0.93;;;7.90;71.30;;;;;;5075477;28;20050;-73
2021/03/20 11:18:44;;;;;;;1.35;0.98;;;7.90;70.90;;;;;;5092343;28;20071;-73
2021/03/20 11:21:23;;;;;;;1.45;0.90;;;8.00;70.90;;;;;;5092922;28;20090;-73
2021/03/20 11:24:16;;;;;;;1.17;0.80;;;8.00;70.80;;;;;;5092446;28;20036;-73
2021/03/20 11:26:45;;;;;;;1.67;0.93;;;8.00;70.70;;;;;;5075832;28;20040;-74
2021/03/20 11:29:18;;;;;;;1.55;1.05;;;8.10;70.40;;;;;;5092835;28;20543;-74
2021/03/20 11:31:52;;;;;;;1.40;1.10;;;8.10;70.40;;;;;;5074331;28;20446;-73
2021/03/20 11:34:27;;;;;;;2.25;1.10;;;8.20;70.40;;;;;;5092125;28;20047;-74
2021/03/20 11:36:54;;;;;;;1.40;1.00;;;8.20;70.10;;;;;;5092374;28;20055;-74
2021/03/20 11:39:20;;;;;;;1.27;0.93;;;8.20;70.00;;;;;;5092676;28;20051;-73
2021/03/20 11:41:53;;;;;;;1.77;1.13;;;8.30;70.20;;;;;;5092349;28;20398;-75
2021/03/20 11:44:24;;;;;;;1.08;0.80;;;8.40;70.10;;;;;;5074805;28;20036;-73
2021/03/20 11:46:56;;;;;;;1.88;1.10;;;8.50;69.80;;;;;;5093591;28;20181;-73
2021/03/20 11:49:27;;;;;;;1.17;0.82;;;8.40;69.50;;;;;;5096179;28;20073;-73
2021/03/20 11:51:54;;;;;;;1.27;0.82;;;8.50;69.70;;;;;;5095858;28;20044;-73
2021/03/20 11:54:38;;;;;;;0.73;0.60;;;8.60;69.70;;;;;;5077864;28;20054;-73
2021/03/20 11:57:28;;;;;;;0.90;0.75;;;8.70;69.30;;;;;;5095911;28;20036;-74
2021/03/20 11:59:54;;;;;;;1.63;0.93;;;8.70;69.20;;;;;;5095667;28;20477;-74
2021/03/20 12:02:38;;;;;;;1.55;1.10;;;8.80;69.00;;;;;;5095671;28;20059;-74
2021/03/20 12:05:20;;;;;;;1.00;0.90;;;8.90;69.30;;;;;;5092298;28;20151;-74
2021/03/20 12:07:46;;;;;;;1.08;0.93;;;8.90;68.70;;;;;;5096092;28;20066;-73
2021/03/20 12:10:25;;;;;;;1.60;0.90;;;9.00;68.60;;;;;;5096231;28;20062;-74
2021/03/20 12:12:56;;;;;;;1.58;0.85;;;9.10;68.60;;;;;;5077346;28;20052;-74
2021/03/20 12:15:28;;;;;;;1.88;1.17;;;9.20;68.50;;;;;;5095825;28;20078;-74
2021/03/20 12:17:56;;;;;;;1.45;1.13;;;9.30;68.20;;;;;;5077284;28;20443;-74
2021/03/20 12:20:35;;;;;;;3.20;1.30;;;9.30;68.10;;;;;;5096331;28;20044;-74
2021/03/20 12:23:20;;;;;;;1.25;1.10;;;9.30;67.90;;;;;;5096105;28;20044;-74
2021/03/20 12:25:51;;;;;;;1.58;1.15;;;9.30;68.00;;;;;;5075872;28;20494;-74
2021/03/20 12:28:35;;;;;;;1.63;1.13;;;9.30;67.80;;;;;;5095239;28;20130;-74
2021/03/20 12:31:26;;;;;;;2.28;1.48;;;9.30;67.90;;;;;;5095358;28;20421;-74
2021/03/20 12:34:02;;;;;;;1.60;1.23;;;9.50;67.70;;;;;;5080501;28;20028;-74
2021/03/20 12:36:33;;;;;;;1.90;1.30;;;9.40;67.20;;;;;;5095096;28;20036;-74
2021/03/20 12:39:00;;;;;;;1.85;1.25;;;9.40;67.30;;;;;;5095213;28;20071;-74
2021/03/20 12:41:29;;;;;;;1.42;1.13;;;9.30;67.40;;;;;;5095405;28;20069;-74
2021/03/20 12:44:10;;;;;;;1.60;1.00;;;9.50;67.40;;;;;;5095501;28;20040;-74
2021/03/20 12:46:38;;;;;;;2.05;1.20;;;9.70;67.10;;;;;;5095296;28;20062;-74
2021/03/20 12:49:04;;;;;;;1.55;1.10;;;9.80;67.00;;;;;;5095438;28;20036;-74
2021/03/20 12:51:30;;;;;;;2.63;1.42;;;9.70;66.40;;;;;;5094930;28;20530;-74
2021/03/20 12:53:56;;;;;;;1.88;1.20;;;9.60;66.40;;;;;;5095548;28;20123;-74
2021/03/20 12:56:22;;;;;;;2.40;1.25;;;9.70;66.60;;;;;;5095288;28;20040;-73
2021/03/20 12:58:48;;;;;;;1.50;1.10;;;9.80;66.50;;;;;;5093579;28;21984;-74
2021/03/20 13:01:13;;;;;;;1.67;1.20;;;9.80;66.40;;;;;;5094986;28;20040;-72
2021/03/20 13:03:39;;;;;;;1.38;1.10;;;10.00;66.50;;;;;;5094942;28;20485;-74
2021/03/20 13:06:08;;;;;;;1.60;1.17;;;10.00;66.10;;;;;;5095582;28;20066;-74
2021/03/20 13:08:36;;;;;;;2.42;1.40;;;9.90;66.00;;;;;;5076542;28;20482;-74
2021/03/20 13:11:03;;;;;;;1.85;1.30;;;9.90;65.90;;;;;;5094466;28;20367;-74
2021/03/20 13:13:30;;;;;;;1.90;1.30;;;9.80;65.90;;;;;;5094339;28;20040;-75
2021/03/20 13:15:55;;;;;;;1.33;1.20;;;9.80;66.10;;;;;;5090730;28;20039;-75
2021/03/20 13:18:21;;;;;;;1.50;1.10;;;9.90;66.10;;;;;;5094780;28;20044;-72
2021/03/20 13:20:47;;;;;;;2.05;1.10;;;10.10;65.80;;;;;;5094150;28;20517;-74
2021/03/20 13:23:13;;;;;;;2.40;1.30;;;10.10;65.40;;;;;;5094540;28;20036;-74
2021/03/20 13:25:41;;;;;;;1.55;1.23;;;9.90;65.00;;;;;;5094097;28;20474;-73
2021/03/20 13:28:09;;;;;;;1.67;1.20;;;9.90;65.10;;;;;;5075276;28;20130;-74
2021/03/20 13:30:39;;;;;;;1.63;1.05;;;10.00;65.30;;;;;;5094133;28;20080;-73
2021/03/20 13:33:06;;;;;;;1.95;1.23;;;10.00;64.90;;;;;;5058709;28;20049;-74
2021/03/20 13:35:35;;;;;;;1.33;1.08;;;10.00;64.70;;;;;;5094116;28;20040;-73
2021/03/20 13:38:01;;;;;;;2.78;1.33;;;10.10;64.50;;;;;;5094112;28;20162;-73
2021/03/20 13:40:28;;;;;;;1.80;1.40;;;10.10;64.30;;;;;;5094140;28;20131;-74